MSC Fortunate — 3FLG6 — position and weather

sailwx.info

Track history (hours):
 
Tides and Currents Weather Stations Pressure Air Temp Water Temp Dewpoint Dewpoint Depression Visibility Wind Speed Wind Dir Waves Ship Positions

MSC Fortunate

Last reported at 2014-Oct-20 09:33 UTC. Time now 2014-Oct-20 09:52 UTC.
Position N 32°44' E 034°48'.

Length 275 m; draft 9.4 m.

Type: Ship. MMSI: 356708000.

Date/timePositionNaut miles runAvg speedWind from/ knotsBaromVisibWave heightAir tempDewpointWater temp
2014-Oct-20 09:33N 32°44' E 034°48'10 0.2
2014-Oct-18 07:32N 32°54' E 034°52'15417.1
2014-Oct-17 22:34N 32°21' E 031°54'5718.8
2014-Oct-17 19:33N 32°02' E 030°51'2518.9
2014-Oct-17 18:13N 31°50' E 030°25'  
2014-Oct-10 21:09N 36°25' E 014°30'1118.3
2014-Oct-10 20:33N 36°28' E 014°16'2018.2
2014-Oct-10 19:29N 36°33' E 013°53'2217.8
2014-Oct-10 18:13N 36°39' E 013°26'1014.3
2014-Oct-10 17:30N 36°42' E 013°13'1212.6
2014-Oct-10 16:33N 36°45' E 012°59'2017.0
2014-Oct-10 15:22N 36°50' E 012°35'  
Track history (hours):
 
Tides and Currents Weather Stations Pressure Air Temp Water Temp Dewpoint Dewpoint Depression Visibility Wind Speed Wind Dir Waves Ship Positions

MSC Fortunate

Last reported at 2014-Oct-20 09:33 UTC. Time now 2014-Oct-20 09:52 UTC.
Position N 32°44' E 034°48'.

Length 275 m; draft 9.4 m.

Type: Ship. MMSI: 356708000.

Date/timePositionNaut miles runAvg speedWind from/ knotsBaromVisibWave heightAir tempDewpointWater temp
2014-Oct-20 09:33N 32°44' E 034°48'10 0.2
2014-Oct-18 07:32N 32°54' E 034°52'15417.1
2014-Oct-17 22:34N 32°21' E 031°54'5718.8
2014-Oct-17 19:33N 32°02' E 030°51'2518.9
2014-Oct-17 18:13N 31°50' E 030°25'  
2014-Oct-10 21:09N 36°25' E 014°30'1118.3
2014-Oct-10 20:33N 36°28' E 014°16'2018.2
2014-Oct-10 19:29N 36°33' E 013°53'2217.8
2014-Oct-10 18:13N 36°39' E 013°26'1014.3
2014-Oct-10 17:30N 36°42' E 013°13'1212.6
2014-Oct-10 16:33N 36°45' E 012°59'2017.0
2014-Oct-10 15:22N 36°50' E 012°35'  

Dump ship's entire track history